sensor_id;sensor_type;location;lat;lon;timestamp;P1;durP1;ratioP1;P2;durP2;ratioP2
45730;SDS011;31440;48.584;13.460;2022-12-07T00:02:10;8.82;;;5.93;;
45730;SDS011;31440;48.584;13.460;2022-12-07T00:04:36;10.45;;;6.10;;
45730;SDS011;31440;48.584;13.460;2022-12-07T00:07:01;8.48;;;5.88;;
45730;SDS011;31440;48.584;13.460;2022-12-07T00:09:27;8.15;;;5.63;;
45730;SDS011;31440;48.584;13.460;2022-12-07T00:11:53;10.35;;;6.93;;
45730;SDS011;31440;48.584;13.460;2022-12-07T00:14:19;9.55;;;6.22;;
45730;SDS011;31440;48.584;13.460;2022-12-07T00:16:44;9.93;;;6.25;;
45730;SDS011;31440;48.584;13.460;2022-12-07T00:19:11;9.90;;;6.57;;
45730;SDS011;31440;48.584;13.460;2022-12-07T00:21:38;8.45;;;5.80;;
45730;SDS011;31440;48.584;13.460;2022-12-07T00:24:04;9.10;;;5.88;;
45730;SDS011;31440;48.584;13.460;2022-12-07T00:26:34;9.60;;;6.28;;
45730;SDS011;31440;48.584;13.460;2022-12-07T00:29:04;10.88;;;6.20;;
45730;SDS011;31440;48.584;13.460;2022-12-07T00:31:35;12.10;;;6.47;;
45730;SDS011;31440;48.584;13.460;2022-12-07T00:34:07;11.80;;;7.00;;
45730;SDS011;31440;48.584;13.460;2022-12-07T00:36:37;10.63;;;6.60;;
45730;SDS011;31440;48.584;13.460;2022-12-07T00:39:02;8.90;;;5.93;;
45730;SDS011;31440;48.584;13.460;2022-12-07T00:41:28;9.73;;;6.13;;
45730;SDS011;31440;48.584;13.460;2022-12-07T00:43:55;11.73;;;7.25;;
45730;SDS011;31440;48.584;13.460;2022-12-07T00:46:20;10.35;;;7.30;;
45730;SDS011;31440;48.584;13.460;2022-12-07T00:48:48;8.02;;;6.20;;
45730;SDS011;31440;48.584;13.460;2022-12-07T00:51:14;11.73;;;6.70;;
45730;SDS011;31440;48.584;13.460;2022-12-07T00:53:41;9.57;;;6.25;;
45730;SDS011;31440;48.584;13.460;2022-12-07T00:58:33;10.20;;;6.18;;
45730;SDS011;31440;48.584;13.460;2022-12-07T01:00:59;9.35;;;6.10;;
45730;SDS011;31440;48.584;13.460;2022-12-07T01:03:26;10.93;;;6.93;;
45730;SDS011;31440;48.584;13.460;2022-12-07T01:05:53;10.27;;;6.55;;
45730;SDS011;31440;48.584;13.460;2022-12-07T01:08:20;8.95;;;6.25;;
45730;SDS011;31440;48.584;13.460;2022-12-07T01:10:46;9.07;;;6.20;;
45730;SDS011;31440;48.584;13.460;2022-12-07T01:13:12;11.63;;;6.47;;
45730;SDS011;31440;48.584;13.460;2022-12-07T01:15:41;10.82;;;6.60;;
45730;SDS011;31440;48.584;13.460;2022-12-07T01:18:08;9.98;;;6.50;;
45730;SDS011;31440;48.584;13.460;2022-12-07T01:20:34;8.95;;;6.15;;
45730;SDS011;31440;48.584;13.460;2022-12-07T01:23:00;12.50;;;6.35;;
45730;SDS011;31440;48.584;13.460;2022-12-07T01:25:25;10.30;;;6.72;;
45730;SDS011;31440;48.584;13.460;2022-12-07T01:27:51;8.82;;;5.68;;
45730;SDS011;31440;48.584;13.460;2022-12-07T01:30:16;12.52;;;6.68;;
45730;SDS011;31440;48.584;13.460;2022-12-07T01:32:42;10.20;;;6.25;;
45730;SDS011;31440;48.584;13.460;2022-12-07T01:35:07;7.75;;;5.70;;
45730;SDS011;31440;48.584;13.460;2022-12-07T01:37:37;8.68;;;5.53;;
45730;SDS011;31440;48.584;13.460;2022-12-07T01:40:06;8.88;;;6.43;;
45730;SDS011;31440;48.584;13.460;2022-12-07T01:42:33;9.60;;;6.15;;
45730;SDS011;31440;48.584;13.460;2022-12-07T01:47:43;9.25;;;6.03;;
45730;SDS011;31440;48.584;13.460;2022-12-07T01:50:13;9.02;;;5.53;;
45730;SDS011;31440;48.584;13.460;2022-12-07T01:52:38;9.27;;;5.90;;
45730;SDS011;31440;48.584;13.460;2022-12-07T01:55:06;8.02;;;5.03;;
45730;SDS011;31440;48.584;13.460;2022-12-07T01:57:34;11.07;;;5.38;;
45730;SDS011;31440;48.584;13.460;2022-12-07T02:00:05;8.88;;;5.78;;
45730;SDS011;31440;48.584;13.460;2022-12-07T02:02:44;7.10;;;4.95;;
45730;SDS011;31440;48.584;13.460;2022-12-07T02:05:16;7.40;;;5.45;;
45730;SDS011;31440;48.584;13.460;2022-12-07T02:07:42;8.80;;;5.63;;
45730;SDS011;31440;48.584;13.460;2022-12-07T02:10:19;6.97;;;5.10;;
45730;SDS011;31440;48.584;13.460;2022-12-07T02:12:49;9.10;;;5.75;;
45730;SDS011;31440;48.584;13.460;2022-12-07T02:15:18;14.00;;;6.03;;
45730;SDS011;31440;48.584;13.460;2022-12-07T02:17:56;9.63;;;6.15;;
45730;SDS011;31440;48.584;13.460;2022-12-07T02:23:40;8.85;;;5.05;;
45730;SDS011;31440;48.584;13.460;2022-12-07T02:28:56;8.35;;;5.57;;
45730;SDS011;31440;48.584;13.460;2022-12-07T02:31:48;9.23;;;5.25;;
45730;SDS011;31440;48.584;13.460;2022-12-07T02:34:27;8.27;;;5.60;;
45730;SDS011;31440;48.584;13.460;2022-12-07T02:37:00;9.00;;;6.53;;
45730;SDS011;31440;48.584;13.460;2022-12-07T02:42:12;9.98;;;5.97;;
45730;SDS011;31440;48.584;13.460;2022-12-07T02:44:42;8.40;;;5.93;;
45730;SDS011;31440;48.584;13.460;2022-12-07T02:47:10;9.43;;;5.75;;
45730;SDS011;31440;48.584;13.460;2022-12-07T02:49:39;7.72;;;5.80;;
45730;SDS011;31440;48.584;13.460;2022-12-07T02:52:05;12.27;;;5.88;;
45730;SDS011;31440;48.584;13.460;2022-12-07T02:54:31;9.77;;;6.10;;
45730;SDS011;31440;48.584;13.460;2022-12-07T02:57:00;8.25;;;5.97;;
45730;SDS011;31440;48.584;13.460;2022-12-07T03:05:13;9.13;;;5.80;;
45730;SDS011;31440;48.584;13.460;2022-12-07T03:18:22;11.88;;;7.00;;
45730;SDS011;31440;48.584;13.460;2022-12-07T03:20:51;9.27;;;6.82;;
45730;SDS011;31440;48.584;13.460;2022-12-07T03:23:20;10.30;;;6.50;;
45730;SDS011;31440;48.584;13.460;2022-12-07T03:25:49;9.55;;;6.53;;
45730;SDS011;31440;48.584;13.460;2022-12-07T03:28:20;10.13;;;6.43;;
45730;SDS011;31440;48.584;13.460;2022-12-07T03:31:01;9.32;;;6.05;;
45730;SDS011;31440;48.584;13.460;2022-12-07T03:36:18;10.02;;;6.00;;
45730;SDS011;31440;48.584;13.460;2022-12-07T03:38:50;11.50;;;6.78;;
45730;SDS011;31440;48.584;13.460;2022-12-07T03:41:24;9.65;;;6.38;;
45730;SDS011;31440;48.584;13.460;2022-12-07T03:43:53;11.73;;;6.47;;
45730;SDS011;31440;48.584;13.460;2022-12-07T03:51:54;9.45;;;6.65;;
45730;SDS011;31440;48.584;13.460;2022-12-07T03:54:50;10.57;;;6.70;;
45730;SDS011;31440;48.584;13.460;2022-12-07T03:57:21;11.55;;;6.45;;
45730;SDS011;31440;48.584;13.460;2022-12-07T03:59:49;9.82;;;6.32;;
45730;SDS011;31440;48.584;13.460;2022-12-07T04:02:16;10.23;;;6.28;;
45730;SDS011;31440;48.584;13.460;2022-12-07T04:04:42;9.65;;;6.15;;
45730;SDS011;31440;48.584;13.460;2022-12-07T04:07:08;10.85;;;7.22;;
45730;SDS011;31440;48.584;13.460;2022-12-07T04:09:34;10.05;;;6.25;;
45730;SDS011;31440;48.584;13.460;2022-12-07T04:12:01;8.73;;;5.85;;
45730;SDS011;31440;48.584;13.460;2022-12-07T04:14:27;10.68;;;6.80;;
45730;SDS011;31440;48.584;13.460;2022-12-07T04:16:56;11.07;;;7.05;;
45730;SDS011;31440;48.584;13.460;2022-12-07T04:19:24;10.73;;;6.70;;
45730;SDS011;31440;48.584;13.460;2022-12-07T04:21:51;10.13;;;6.68;;
45730;SDS011;31440;48.584;13.460;2022-12-07T04:24:16;10.65;;;6.45;;
45730;SDS011;31440;48.584;13.460;2022-12-07T04:26:42;11.63;;;6.97;;
45730;SDS011;31440;48.584;13.460;2022-12-07T04:29:09;10.98;;;6.88;;
45730;SDS011;31440;48.584;13.460;2022-12-07T04:31:35;10.18;;;6.68;;
45730;SDS011;31440;48.584;13.460;2022-12-07T04:34:01;12.10;;;6.93;;
45730;SDS011;31440;48.584;13.460;2022-12-07T04:36:26;10.90;;;6.85;;
45730;SDS011;31440;48.584;13.460;2022-12-07T04:38:53;10.90;;;6.47;;
45730;SDS011;31440;48.584;13.460;2022-12-07T04:41:20;10.77;;;6.55;;
45730;SDS011;31440;48.584;13.460;2022-12-07T04:44:02;13.05;;;7.25;;
45730;SDS011;31440;48.584;13.460;2022-12-07T04:46:29;12.48;;;7.43;;
45730;SDS011;31440;48.584;13.460;2022-12-07T04:48:56;11.05;;;7.13;;
45730;SDS011;31440;48.584;13.460;2022-12-07T04:51:24;13.23;;;7.68;;
45730;SDS011;31440;48.584;13.460;2022-12-07T04:53:51;11.30;;;6.70;;
45730;SDS011;31440;48.584;13.460;2022-12-07T04:56:17;11.45;;;6.63;;
45730;SDS011;31440;48.584;13.460;2022-12-07T04:58:44;9.98;;;7.30;;
45730;SDS011;31440;48.584;13.460;2022-12-07T05:01:10;12.70;;;7.07;;
45730;SDS011;31440;48.584;13.460;2022-12-07T05:03:37;13.60;;;8.25;;
45730;SDS011;31440;48.584;13.460;2022-12-07T05:06:03;10.88;;;8.05;;
45730;SDS011;31440;48.584;13.460;2022-12-07T05:08:28;12.35;;;7.82;;
45730;SDS011;31440;48.584;13.460;2022-12-07T05:10:56;12.20;;;7.38;;
45730;SDS011;31440;48.584;13.460;2022-12-07T05:13:22;12.88;;;8.38;;
45730;SDS011;31440;48.584;13.460;2022-12-07T05:15:47;11.00;;;7.82;;
45730;SDS011;31440;48.584;13.460;2022-12-07T05:18:13;14.30;;;7.57;;
45730;SDS011;31440;48.584;13.460;2022-12-07T05:20:39;12.43;;;8.18;;
45730;SDS011;31440;48.584;13.460;2022-12-07T05:23:05;11.95;;;7.57;;
45730;SDS011;31440;48.584;13.460;2022-12-07T05:25:31;11.07;;;7.28;;
45730;SDS011;31440;48.584;13.460;2022-12-07T05:27:56;11.57;;;7.93;;
45730;SDS011;31440;48.584;13.460;2022-12-07T05:30:25;10.90;;;7.05;;
45730;SDS011;31440;48.584;13.460;2022-12-07T05:32:51;10.77;;;7.50;;
45730;SDS011;31440;48.584;13.460;2022-12-07T05:35:17;13.63;;;7.38;;
45730;SDS011;31440;48.584;13.460;2022-12-07T05:37:43;10.90;;;7.75;;
45730;SDS011;31440;48.584;13.460;2022-12-07T05:40:09;11.15;;;7.68;;
45730;SDS011;31440;48.584;13.460;2022-12-07T05:42:35;10.63;;;7.65;;
45730;SDS011;31440;48.584;13.460;2022-12-07T05:45:01;11.32;;;7.28;;
45730;SDS011;31440;48.584;13.460;2022-12-07T05:47:26;11.93;;;7.63;;
45730;SDS011;31440;48.584;13.460;2022-12-07T05:49:52;13.27;;;8.13;;
45730;SDS011;31440;48.584;13.460;2022-12-07T05:52:17;12.85;;;7.82;;
45730;SDS011;31440;48.584;13.460;2022-12-07T05:54:43;13.30;;;7.97;;
45730;SDS011;31440;48.584;13.460;2022-12-07T05:57:09;11.27;;;7.75;;
45730;SDS011;31440;48.584;13.460;2022-12-07T05:59:34;13.98;;;8.27;;
45730;SDS011;31440;48.584;13.460;2022-12-07T06:02:01;11.40;;;7.38;;
45730;SDS011;31440;48.584;13.460;2022-12-07T06:04:30;11.52;;;7.43;;
45730;SDS011;31440;48.584;13.460;2022-12-07T06:06:59;10.60;;;6.50;;
45730;SDS011;31440;48.584;13.460;2022-12-07T06:09:25;10.50;;;7.60;;
45730;SDS011;31440;48.584;13.460;2022-12-07T06:11:53;11.93;;;7.40;;
45730;SDS011;31440;48.584;13.460;2022-12-07T06:14:38;10.55;;;7.18;;
45730;SDS011;31440;48.584;13.460;2022-12-07T06:17:04;12.80;;;8.05;;
45730;SDS011;31440;48.584;13.460;2022-12-07T06:19:30;10.82;;;7.53;;
45730;SDS011;31440;48.584;13.460;2022-12-07T06:24:21;9.80;;;6.72;;
45730;SDS011;31440;48.584;13.460;2022-12-07T06:26:47;11.00;;;7.22;;
45730;SDS011;31440;48.584;13.460;2022-12-07T06:29:13;10.82;;;8.02;;
45730;SDS011;31440;48.584;13.460;2022-12-07T06:31:38;12.13;;;7.72;;
45730;SDS011;31440;48.584;13.460;2022-12-07T06:34:05;12.95;;;7.35;;
45730;SDS011;31440;48.584;13.460;2022-12-07T06:36:34;11.75;;;7.88;;
45730;SDS011;31440;48.584;13.460;2022-12-07T06:39:00;11.00;;;7.68;;
45730;SDS011;31440;48.584;13.460;2022-12-07T06:41:25;12.20;;;8.20;;
45730;SDS011;31440;48.584;13.460;2022-12-07T06:43:51;13.15;;;7.47;;
45730;SDS011;31440;48.584;13.460;2022-12-07T06:46:17;12.05;;;8.38;;
45730;SDS011;31440;48.584;13.460;2022-12-07T06:48:42;12.90;;;8.40;;
45730;SDS011;31440;48.584;13.460;2022-12-07T06:51:08;15.40;;;8.65;;
45730;SDS011;31440;48.584;13.460;2022-12-07T06:53:34;13.55;;;8.50;;
45730;SDS011;31440;48.584;13.460;2022-12-07T06:56:00;21.10;;;8.30;;
45730;SDS011;31440;48.584;13.460;2022-12-07T06:58:26;12.18;;;7.85;;
45730;SDS011;31440;48.584;13.460;2022-12-07T07:00:52;13.80;;;9.13;;
45730;SDS011;31440;48.584;13.460;2022-12-07T07:03:17;14.75;;;8.63;;
45730;SDS011;31440;48.584;13.460;2022-12-07T07:05:43;13.85;;;8.93;;
45730;SDS011;31440;48.584;13.460;2022-12-07T07:08:09;13.50;;;8.25;;
45730;SDS011;31440;48.584;13.460;2022-12-07T07:10:35;14.00;;;8.60;;
45730;SDS011;31440;48.584;13.460;2022-12-07T07:13:01;14.00;;;9.15;;
45730;SDS011;31440;48.584;13.460;2022-12-07T07:15:27;14.20;;;9.27;;
45730;SDS011;31440;48.584;13.460;2022-12-07T07:17:52;12.85;;;8.10;;
45730;SDS011;31440;48.584;13.460;2022-12-07T07:20:18;11.55;;;7.88;;
45730;SDS011;31440;48.584;13.460;2022-12-07T07:22:44;14.27;;;8.75;;
45730;SDS011;31440;48.584;13.460;2022-12-07T07:25:09;13.77;;;8.07;;
45730;SDS011;31440;48.584;13.460;2022-12-07T07:27:35;14.07;;;8.75;;
45730;SDS011;31440;48.584;13.460;2022-12-07T07:30:01;13.73;;;8.40;;
45730;SDS011;31440;48.584;13.460;2022-12-07T07:32:26;18.65;;;9.27;;
45730;SDS011;31440;48.584;13.460;2022-12-07T07:34:52;15.73;;;9.55;;
45730;SDS011;31440;48.584;13.460;2022-12-07T07:37:17;16.88;;;9.50;;
45730;SDS011;31440;48.584;13.460;2022-12-07T07:39:43;13.63;;;9.23;;
45730;SDS011;31440;48.584;13.460;2022-12-07T07:42:08;16.92;;;9.90;;
45730;SDS011;31440;48.584;13.460;2022-12-07T07:44:34;13.68;;;8.20;;
45730;SDS011;31440;48.584;13.460;2022-12-07T07:47:00;15.18;;;8.75;;
45730;SDS011;31440;48.584;13.460;2022-12-07T07:49:26;15.25;;;9.48;;
45730;SDS011;31440;48.584;13.460;2022-12-07T07:54:17;16.70;;;9.57;;
45730;SDS011;31440;48.584;13.460;2022-12-07T07:56:43;15.82;;;9.40;;
45730;SDS011;31440;48.584;13.460;2022-12-07T07:59:08;13.60;;;9.23;;
45730;SDS011;31440;48.584;13.460;2022-12-07T08:01:34;14.77;;;9.30;;
45730;SDS011;31440;48.584;13.460;2022-12-07T08:04:00;20.02;;;10.45;;
45730;SDS011;31440;48.584;13.460;2022-12-07T08:06:25;16.80;;;10.68;;
45730;SDS011;31440;48.584;13.460;2022-12-07T08:08:51;14.52;;;9.25;;
45730;SDS011;31440;48.584;13.460;2022-12-07T08:11:17;16.17;;;9.98;;
45730;SDS011;31440;48.584;13.460;2022-12-07T08:13:45;16.85;;;9.07;;
45730;SDS011;31440;48.584;13.460;2022-12-07T08:16:12;16.77;;;9.80;;
45730;SDS011;31440;48.584;13.460;2022-12-07T08:18:39;15.13;;;10.48;;
45730;SDS011;31440;48.584;13.460;2022-12-07T08:21:05;16.52;;;10.23;;
45730;SDS011;31440;48.584;13.460;2022-12-07T08:23:32;18.17;;;10.10;;
45730;SDS011;31440;48.584;13.460;2022-12-07T08:26:02;14.15;;;9.82;;
45730;SDS011;31440;48.584;13.460;2022-12-07T08:28:29;16.80;;;10.18;;
45730;SDS011;31440;48.584;13.460;2022-12-07T08:31:14;13.55;;;9.32;;
45730;SDS011;31440;48.584;13.460;2022-12-07T08:33:41;15.68;;;9.52;;
45730;SDS011;31440;48.584;13.460;2022-12-07T08:36:08;14.10;;;9.93;;
45730;SDS011;31440;48.584;13.460;2022-12-07T08:38:35;13.60;;;8.88;;
45730;SDS011;31440;48.584;13.460;2022-12-07T08:41:02;14.93;;;9.40;;
45730;SDS011;31440;48.584;13.460;2022-12-07T08:43:28;15.50;;;8.95;;
45730;SDS011;31440;48.584;13.460;2022-12-07T08:45:59;15.88;;;9.15;;
45730;SDS011;31440;48.584;13.460;2022-12-07T08:48:27;14.52;;;8.15;;
45730;SDS011;31440;48.584;13.460;2022-12-07T08:50:52;12.82;;;8.15;;
45730;SDS011;31440;48.584;13.460;2022-12-07T08:53:18;13.95;;;9.35;;
45730;SDS011;31440;48.584;13.460;2022-12-07T08:55:45;11.07;;;7.05;;
45730;SDS011;31440;48.584;13.460;2022-12-07T08:58:11;12.18;;;8.27;;
45730;SDS011;31440;48.584;13.460;2022-12-07T09:00:37;11.25;;;7.80;;
45730;SDS011;31440;48.584;13.460;2022-12-07T09:03:03;8.98;;;6.68;;
45730;SDS011;31440;48.584;13.460;2022-12-07T09:05:28;9.73;;;6.28;;
45730;SDS011;31440;48.584;13.460;2022-12-07T09:07:55;14.68;;;7.28;;
45730;SDS011;31440;48.584;13.460;2022-12-07T09:10:25;10.13;;;6.50;;
45730;SDS011;31440;48.584;13.460;2022-12-07T09:12:51;14.60;;;9.13;;
45730;SDS011;31440;48.584;13.460;2022-12-07T09:15:17;10.02;;;7.00;;
45730;SDS011;31440;48.584;13.460;2022-12-07T09:17:42;10.32;;;6.97;;
45730;SDS011;31440;48.584;13.460;2022-12-07T09:20:08;12.30;;;8.18;;
45730;SDS011;31440;48.584;13.460;2022-12-07T09:22:34;17.17;;;8.13;;
45730;SDS011;31440;48.584;13.460;2022-12-07T09:25:00;13.65;;;8.45;;
45730;SDS011;31440;48.584;13.460;2022-12-07T09:27:26;11.82;;;6.95;;
45730;SDS011;31440;48.584;13.460;2022-12-07T09:29:53;12.00;;;7.50;;
45730;SDS011;31440;48.584;13.460;2022-12-07T09:32:18;13.57;;;8.30;;
45730;SDS011;31440;48.584;13.460;2022-12-07T09:34:44;12.27;;;7.70;;
45730;SDS011;31440;48.584;13.460;2022-12-07T09:37:09;13.18;;;8.45;;
45730;SDS011;31440;48.584;13.460;2022-12-07T09:39:37;14.25;;;9.15;;
45730;SDS011;31440;48.584;13.460;2022-12-07T09:42:04;14.32;;;9.38;;
45730;SDS011;31440;48.584;13.460;2022-12-07T09:44:31;17.63;;;9.15;;
45730;SDS011;31440;48.584;13.460;2022-12-07T09:46:56;14.07;;;10.20;;
45730;SDS011;31440;48.584;13.460;2022-12-07T09:49:24;16.10;;;8.77;;
45730;SDS011;31440;48.584;13.460;2022-12-07T09:54:19;12.77;;;8.77;;
45730;SDS011;31440;48.584;13.460;2022-12-07T09:56:45;10.75;;;7.15;;
45730;SDS011;31440;48.584;13.460;2022-12-07T09:59:13;13.20;;;8.40;;
45730;SDS011;31440;48.584;13.460;2022-12-07T10:01:43;17.83;;;9.20;;
45730;SDS011;31440;48.584;13.460;2022-12-07T10:04:16;13.23;;;7.93;;
45730;SDS011;31440;48.584;13.460;2022-12-07T10:06:45;12.57;;;8.43;;
45730;SDS011;31440;48.584;13.460;2022-12-07T10:09:12;12.98;;;7.88;;
45730;SDS011;31440;48.584;13.460;2022-12-07T10:14:27;10.82;;;7.28;;
45730;SDS011;31440;48.584;13.460;2022-12-07T10:24:33;10.68;;;7.03;;
45730;SDS011;31440;48.584;13.460;2022-12-07T10:26:59;10.30;;;6.30;;
45730;SDS011;31440;48.584;13.460;2022-12-07T10:29:29;10.88;;;6.90;;
45730;SDS011;31440;48.584;13.460;2022-12-07T10:34:40;11.43;;;7.13;;
45730;SDS011;31440;48.584;13.460;2022-12-07T10:39:50;12.20;;;7.18;;
45730;SDS011;31440;48.584;13.460;2022-12-07T10:42:38;10.95;;;7.05;;
45730;SDS011;31440;48.584;13.460;2022-12-07T10:45:20;11.43;;;7.10;;
45730;SDS011;31440;48.584;13.460;2022-12-07T10:47:48;11.75;;;7.50;;
45730;SDS011;31440;48.584;13.460;2022-12-07T10:59:21;9.95;;;6.10;;
45730;SDS011;31440;48.584;13.460;2022-12-07T11:04:51;11.65;;;7.00;;
45730;SDS011;31440;48.584;13.460;2022-12-07T11:07:46;10.93;;;7.07;;
45730;SDS011;31440;48.584;13.460;2022-12-07T11:10:17;11.20;;;6.38;;
45730;SDS011;31440;48.584;13.460;2022-12-07T11:20:53;11.77;;;5.97;;
45730;SDS011;31440;48.584;13.460;2022-12-07T11:37:39;9.18;;;6.45;;
45730;SDS011;31440;48.584;13.460;2022-12-07T11:42:58;12.40;;;7.40;;
45730;SDS011;31440;48.584;13.460;2022-12-07T11:45:31;9.38;;;6.63;;
45730;SDS011;31440;48.584;13.460;2022-12-07T11:50:37;13.82;;;7.93;;
45730;SDS011;31440;48.584;13.460;2022-12-07T11:53:09;15.65;;;8.43;;
45730;SDS011;31440;48.584;13.460;2022-12-07T11:58:54;8.43;;;5.60;;
45730;SDS011;31440;48.584;13.460;2022-12-07T12:01:47;8.90;;;6.45;;
45730;SDS011;31440;48.584;13.460;2022-12-07T12:07:02;11.07;;;6.45;;
45730;SDS011;31440;48.584;13.460;2022-12-07T12:09:32;11.82;;;7.18;;
45730;SDS011;31440;48.584;13.460;2022-12-07T12:12:31;10.30;;;6.45;;
45730;SDS011;31440;48.584;13.460;2022-12-07T12:15:40;11.57;;;7.32;;
45730;SDS011;31440;48.584;13.460;2022-12-07T12:18:21;11.52;;;6.70;;
45730;SDS011;31440;48.584;13.460;2022-12-07T12:21:10;12.20;;;6.50;;
45730;SDS011;31440;48.584;13.460;2022-12-07T12:23:43;10.38;;;6.53;;
45730;SDS011;31440;48.584;13.460;2022-12-07T12:26:15;10.73;;;6.10;;
45730;SDS011;31440;48.584;13.460;2022-12-07T12:28:50;11.77;;;6.70;;
45730;SDS011;31440;48.584;13.460;2022-12-07T12:33:46;9.88;;;6.90;;
45730;SDS011;31440;48.584;13.460;2022-12-07T12:46:51;10.50;;;6.90;;
45730;SDS011;31440;48.584;13.460;2022-12-07T12:51:55;13.13;;;7.63;;
45730;SDS011;31440;48.584;13.460;2022-12-07T13:07:54;11.95;;;6.85;;
45730;SDS011;31440;48.584;13.460;2022-12-07T13:10:24;9.40;;;6.72;;
45730;SDS011;31440;48.584;13.460;2022-12-07T13:15:52;11.75;;;8.15;;
45730;SDS011;31440;48.584;13.460;2022-12-07T13:20:59;11.88;;;7.80;;
45730;SDS011;31440;48.584;13.460;2022-12-07T13:23:31;12.48;;;7.47;;
45730;SDS011;31440;48.584;13.460;2022-12-07T13:28:35;11.32;;;7.53;;
45730;SDS011;31440;48.584;13.460;2022-12-07T13:34:02;12.70;;;8.63;;
45730;SDS011;31440;48.584;13.460;2022-12-07T13:36:32;13.48;;;8.35;;
45730;SDS011;31440;48.584;13.460;2022-12-07T13:39:19;12.68;;;7.88;;
45730;SDS011;31440;48.584;13.460;2022-12-07T13:41:57;11.68;;;8.27;;
45730;SDS011;31440;48.584;13.460;2022-12-07T13:44:26;13.05;;;7.45;;
45730;SDS011;31440;48.584;13.460;2022-12-07T13:49:47;12.88;;;8.45;;
45730;SDS011;31440;48.584;13.460;2022-12-07T13:52:18;10.80;;;7.53;;
45730;SDS011;31440;48.584;13.460;2022-12-07T13:54:59;14.82;;;7.45;;
45730;SDS011;31440;48.584;13.460;2022-12-07T13:57:27;14.88;;;7.25;;
45730;SDS011;31440;48.584;13.460;2022-12-07T13:59:59;13.60;;;9.07;;
45730;SDS011;31440;48.584;13.460;2022-12-07T14:02:28;11.27;;;7.10;;
45730;SDS011;31440;48.584;13.460;2022-12-07T14:05:16;11.93;;;7.35;;
45730;SDS011;31440;48.584;13.460;2022-12-07T14:10:35;12.68;;;7.93;;
45730;SDS011;31440;48.584;13.460;2022-12-07T14:13:22;11.25;;;7.30;;
45730;SDS011;31440;48.584;13.460;2022-12-07T14:15:55;10.82;;;6.72;;
45730;SDS011;31440;48.584;13.460;2022-12-07T14:18:27;12.82;;;7.68;;
45730;SDS011;31440;48.584;13.460;2022-12-07T14:23:37;11.88;;;7.40;;
45730;SDS011;31440;48.584;13.460;2022-12-07T14:26:10;10.57;;;7.60;;
45730;SDS011;31440;48.584;13.460;2022-12-07T14:28:41;14.90;;;7.93;;
45730;SDS011;31440;48.584;13.460;2022-12-07T14:31:18;11.48;;;7.15;;
45730;SDS011;31440;48.584;13.460;2022-12-07T14:33:49;12.95;;;7.70;;
45730;SDS011;31440;48.584;13.460;2022-12-07T14:36:14;16.08;;;7.70;;
45730;SDS011;31440;48.584;13.460;2022-12-07T14:38:40;12.73;;;7.30;;
45730;SDS011;31440;48.584;13.460;2022-12-07T14:41:06;15.05;;;7.90;;
45730;SDS011;31440;48.584;13.460;2022-12-07T14:43:57;14.95;;;7.75;;
45730;SDS011;31440;48.584;13.460;2022-12-07T14:46:23;10.63;;;7.50;;
45730;SDS011;31440;48.584;13.460;2022-12-07T14:48:48;12.90;;;7.40;;
45730;SDS011;31440;48.584;13.460;2022-12-07T14:51:14;12.57;;;6.45;;
45730;SDS011;31440;48.584;13.460;2022-12-07T14:53:44;12.55;;;7.05;;
45730;SDS011;31440;48.584;13.460;2022-12-07T14:56:13;14.15;;;7.30;;
45730;SDS011;31440;48.584;13.460;2022-12-07T14:58:39;16.30;;;7.40;;
45730;SDS011;31440;48.584;13.460;2022-12-07T15:01:05;11.73;;;7.45;;
45730;SDS011;31440;48.584;13.460;2022-12-07T15:03:30;12.38;;;8.25;;
45730;SDS011;31440;48.584;13.460;2022-12-07T15:05:56;12.93;;;7.47;;
45730;SDS011;31440;48.584;13.460;2022-12-07T15:08:22;10.13;;;6.57;;
45730;SDS011;31440;48.584;13.460;2022-12-07T15:10:47;13.40;;;7.88;;
45730;SDS011;31440;48.584;13.460;2022-12-07T15:13:13;14.70;;;7.97;;
45730;SDS011;31440;48.584;13.460;2022-12-07T15:15:57;14.93;;;7.90;;
45730;SDS011;31440;48.584;13.460;2022-12-07T15:18:23;15.25;;;7.63;;
45730;SDS011;31440;48.584;13.460;2022-12-07T15:20:49;13.20;;;6.97;;
45730;SDS011;31440;48.584;13.460;2022-12-07T15:23:15;12.02;;;7.55;;
45730;SDS011;31440;48.584;13.460;2022-12-07T15:25:41;13.75;;;8.30;;
45730;SDS011;31440;48.584;13.460;2022-12-07T15:28:08;11.35;;;7.15;;
45730;SDS011;31440;48.584;13.460;2022-12-07T15:30:33;11.77;;;7.78;;
45730;SDS011;31440;48.584;13.460;2022-12-07T15:32:59;13.00;;;7.22;;
45730;SDS011;31440;48.584;13.460;2022-12-07T15:35:24;11.25;;;8.10;;
45730;SDS011;31440;48.584;13.460;2022-12-07T15:37:50;12.13;;;7.55;;
45730;SDS011;31440;48.584;13.460;2022-12-07T15:40:15;14.18;;;8.35;;
45730;SDS011;31440;48.584;13.460;2022-12-07T15:42:41;13.07;;;7.90;;
45730;SDS011;31440;48.584;13.460;2022-12-07T15:45:07;12.63;;;7.55;;
45730;SDS011;31440;48.584;13.460;2022-12-07T15:47:35;12.75;;;7.45;;
45730;SDS011;31440;48.584;13.460;2022-12-07T15:50:09;10.18;;;7.00;;
45730;SDS011;31440;48.584;13.460;2022-12-07T15:52:37;11.68;;;7.45;;
45730;SDS011;31440;48.584;13.460;2022-12-07T15:55:03;12.18;;;7.88;;
45730;SDS011;31440;48.584;13.460;2022-12-07T15:57:30;15.55;;;7.50;;
45730;SDS011;31440;48.584;13.460;2022-12-07T15:59:56;11.73;;;7.55;;
45730;SDS011;31440;48.584;13.460;2022-12-07T16:02:22;14.20;;;7.85;;
45730;SDS011;31440;48.584;13.460;2022-12-07T16:04:48;12.85;;;7.88;;
45730;SDS011;31440;48.584;13.460;2022-12-07T16:07:15;11.25;;;7.15;;
45730;SDS011;31440;48.584;13.460;2022-12-07T16:09:41;13.23;;;7.47;;
45730;SDS011;31440;48.584;13.460;2022-12-07T16:12:08;10.77;;;6.70;;
45730;SDS011;31440;48.584;13.460;2022-12-07T16:14:35;12.30;;;7.20;;
45730;SDS011;31440;48.584;13.460;2022-12-07T16:17:01;11.45;;;7.22;;
45730;SDS011;31440;48.584;13.460;2022-12-07T16:19:26;11.80;;;7.80;;
45730;SDS011;31440;48.584;13.460;2022-12-07T16:24:18;10.85;;;6.65;;
45730;SDS011;31440;48.584;13.460;2022-12-07T16:26:44;13.48;;;7.78;;
45730;SDS011;31440;48.584;13.460;2022-12-07T16:29:11;11.75;;;7.90;;
45730;SDS011;31440;48.584;13.460;2022-12-07T16:31:37;10.38;;;6.72;;
45730;SDS011;31440;48.584;13.460;2022-12-07T16:34:03;14.70;;;7.50;;
45730;SDS011;31440;48.584;13.460;2022-12-07T16:36:28;13.35;;;7.05;;
45730;SDS011;31440;48.584;13.460;2022-12-07T16:38:54;12.40;;;7.85;;
45730;SDS011;31440;48.584;13.460;2022-12-07T16:41:20;11.32;;;7.55;;
45730;SDS011;31440;48.584;13.460;2022-12-07T16:43:45;12.23;;;7.95;;
45730;SDS011;31440;48.584;13.460;2022-12-07T16:46:11;10.50;;;7.20;;
45730;SDS011;31440;48.584;13.460;2022-12-07T16:48:37;16.65;;;8.15;;
45730;SDS011;31440;48.584;13.460;2022-12-07T16:51:07;11.35;;;7.47;;
45730;SDS011;31440;48.584;13.460;2022-12-07T16:53:35;11.25;;;7.18;;
45730;SDS011;31440;48.584;13.460;2022-12-07T16:56:01;14.02;;;8.07;;
45730;SDS011;31440;48.584;13.460;2022-12-07T16:58:28;13.23;;;7.78;;
45730;SDS011;31440;48.584;13.460;2022-12-07T17:00:53;12.48;;;6.88;;
45730;SDS011;31440;48.584;13.460;2022-12-07T17:03:19;15.35;;;8.02;;
45730;SDS011;31440;48.584;13.460;2022-12-07T17:05:45;10.07;;;7.15;;
45730;SDS011;31440;48.584;13.460;2022-12-07T17:08:12;15.38;;;8.52;;
45730;SDS011;31440;48.584;13.460;2022-12-07T17:10:39;14.80;;;8.25;;